sensor_id;sensor_type;location;lat;lon;timestamp;P1;durP1;ratioP1;P2;durP2;ratioP2
21979;SDS011;11154;48.558;9.234;2022-10-31T00:00:52;9.05;;;3.75;;
21979;SDS011;11154;48.558;9.234;2022-10-31T00:02:54;6.80;;;3.72;;
21979;SDS011;11154;48.558;9.234;2022-10-31T00:04:56;10.18;;;3.78;;
21979;SDS011;11154;48.558;9.234;2022-10-31T00:06:57;10.40;;;3.80;;
21979;SDS011;11154;48.558;9.234;2022-10-31T00:09:00;7.95;;;3.40;;
21979;SDS011;11154;48.558;9.234;2022-10-31T00:11:03;8.90;;;3.90;;
21979;SDS011;11154;48.558;9.234;2022-10-31T00:13:09;7.72;;;4.13;;
21979;SDS011;11154;48.558;9.234;2022-10-31T00:15:12;6.18;;;3.45;;
21979;SDS011;11154;48.558;9.234;2022-10-31T00:17:15;12.50;;;3.95;;
21979;SDS011;11154;48.558;9.234;2022-10-31T00:19:16;7.95;;;3.72;;
21979;SDS011;11154;48.558;9.234;2022-10-31T00:21:18;13.38;;;4.00;;
21979;SDS011;11154;48.558;9.234;2022-10-31T00:23:20;7.25;;;3.53;;
21979;SDS011;11154;48.558;9.234;2022-10-31T00:25:22;11.25;;;3.85;;
21979;SDS011;11154;48.558;9.234;2022-10-31T00:27:24;15.10;;;4.53;;
21979;SDS011;11154;48.558;9.234;2022-10-31T00:29:25;8.60;;;4.28;;
21979;SDS011;11154;48.558;9.234;2022-10-31T00:31:27;9.00;;;3.58;;
21979;SDS011;11154;48.558;9.234;2022-10-31T00:33:32;11.35;;;4.53;;
21979;SDS011;11154;48.558;9.234;2022-10-31T00:35:35;6.85;;;3.60;;
21979;SDS011;11154;48.558;9.234;2022-10-31T00:37:36;8.35;;;4.05;;
21979;SDS011;11154;48.558;9.234;2022-10-31T00:39:38;7.85;;;3.90;;
21979;SDS011;11154;48.558;9.234;2022-10-31T00:41:39;12.55;;;4.20;;
21979;SDS011;11154;48.558;9.234;2022-10-31T00:43:41;10.80;;;4.15;;
21979;SDS011;11154;48.558;9.234;2022-10-31T00:45:44;8.23;;;3.95;;
21979;SDS011;11154;48.558;9.234;2022-10-31T00:47:45;7.57;;;3.70;;
21979;SDS011;11154;48.558;9.234;2022-10-31T00:49:48;7.22;;;4.10;;
21979;SDS011;11154;48.558;9.234;2022-10-31T00:51:50;7.88;;;3.70;;
21979;SDS011;11154;48.558;9.234;2022-10-31T00:53:51;7.60;;;3.70;;
21979;SDS011;11154;48.558;9.234;2022-10-31T00:55:53;8.57;;;3.50;;
21979;SDS011;11154;48.558;9.234;2022-10-31T00:57:55;13.70;;;3.78;;
21979;SDS011;11154;48.558;9.234;2022-10-31T00:59:56;8.10;;;4.18;;
21979;SDS011;11154;48.558;9.234;2022-10-31T01:01:58;9.82;;;3.78;;
21979;SDS011;11154;48.558;9.234;2022-10-31T01:04:00;10.07;;;3.83;;
21979;SDS011;11154;48.558;9.234;2022-10-31T01:06:03;12.77;;;4.35;;
21979;SDS011;11154;48.558;9.234;2022-10-31T01:08:07;10.15;;;3.65;;
21979;SDS011;11154;48.558;9.234;2022-10-31T01:10:08;8.48;;;3.58;;
21979;SDS011;11154;48.558;9.234;2022-10-31T01:12:11;11.55;;;3.75;;
21979;SDS011;11154;48.558;9.234;2022-10-31T01:14:13;5.88;;;3.20;;
21979;SDS011;11154;48.558;9.234;2022-10-31T01:16:15;13.80;;;3.42;;
21979;SDS011;11154;48.558;9.234;2022-10-31T01:18:18;8.27;;;3.78;;
21979;SDS011;11154;48.558;9.234;2022-10-31T01:20:20;8.75;;;3.53;;
21979;SDS011;11154;48.558;9.234;2022-10-31T01:22:23;6.72;;;3.70;;
21979;SDS011;11154;48.558;9.234;2022-10-31T01:24:25;8.90;;;3.83;;
21979;SDS011;11154;48.558;9.234;2022-10-31T01:26:27;9.68;;;3.90;;
21979;SDS011;11154;48.558;9.234;2022-10-31T01:28:30;9.18;;;3.10;;
21979;SDS011;11154;48.558;9.234;2022-10-31T01:30:32;7.65;;;3.25;;
21979;SDS011;11154;48.558;9.234;2022-10-31T01:32:33;9.30;;;3.80;;
21979;SDS011;11154;48.558;9.234;2022-10-31T01:34:35;11.48;;;3.60;;
21979;SDS011;11154;48.558;9.234;2022-10-31T01:36:37;12.20;;;3.70;;
21979;SDS011;11154;48.558;9.234;2022-10-31T01:38:40;5.53;;;3.25;;
21979;SDS011;11154;48.558;9.234;2022-10-31T01:40:42;8.90;;;3.72;;
21979;SDS011;11154;48.558;9.234;2022-10-31T01:42:44;7.22;;;3.60;;
21979;SDS011;11154;48.558;9.234;2022-10-31T01:44:53;7.03;;;3.53;;
21979;SDS011;11154;48.558;9.234;2022-10-31T01:46:56;8.82;;;3.53;;
21979;SDS011;11154;48.558;9.234;2022-10-31T01:49:01;8.75;;;3.78;;
21979;SDS011;11154;48.558;9.234;2022-10-31T01:51:06;7.30;;;3.47;;
21979;SDS011;11154;48.558;9.234;2022-10-31T01:53:09;6.07;;;3.08;;
21979;SDS011;11154;48.558;9.234;2022-10-31T01:55:15;5.97;;;3.20;;
21979;SDS011;11154;48.558;9.234;2022-10-31T01:57:19;8.27;;;3.05;;
21979;SDS011;11154;48.558;9.234;2022-10-31T01:59:22;8.25;;;3.33;;
21979;SDS011;11154;48.558;9.234;2022-10-31T02:01:27;8.15;;;3.20;;
21979;SDS011;11154;48.558;9.234;2022-10-31T02:03:29;9.20;;;3.42;;
21979;SDS011;11154;48.558;9.234;2022-10-31T02:05:32;9.32;;;3.30;;
21979;SDS011;11154;48.558;9.234;2022-10-31T02:07:36;8.85;;;3.95;;
21979;SDS011;11154;48.558;9.234;2022-10-31T02:09:40;9.10;;;3.30;;
21979;SDS011;11154;48.558;9.234;2022-10-31T02:11:44;6.40;;;3.28;;
21979;SDS011;11154;48.558;9.234;2022-10-31T02:13:46;8.95;;;3.03;;
21979;SDS011;11154;48.558;9.234;2022-10-31T02:15:49;8.05;;;3.45;;
21979;SDS011;11154;48.558;9.234;2022-10-31T02:17:53;10.52;;;3.45;;
21979;SDS011;11154;48.558;9.234;2022-10-31T02:19:57;8.57;;;3.70;;
21979;SDS011;11154;48.558;9.234;2022-10-31T02:22:09;5.63;;;3.13;;
21979;SDS011;11154;48.558;9.234;2022-10-31T02:24:23;12.20;;;3.75;;
21979;SDS011;11154;48.558;9.234;2022-10-31T02:26:45;9.68;;;4.43;;
21979;SDS011;11154;48.558;9.234;2022-10-31T02:29:00;8.82;;;3.60;;
21979;SDS011;11154;48.558;9.234;2022-10-31T02:31:16;4.22;;;2.88;;
21979;SDS011;11154;48.558;9.234;2022-10-31T02:33:29;10.82;;;3.70;;
21979;SDS011;11154;48.558;9.234;2022-10-31T02:35:45;9.95;;;3.10;;
21979;SDS011;11154;48.558;9.234;2022-10-31T02:37:55;8.82;;;3.55;;
21979;SDS011;11154;48.558;9.234;2022-10-31T02:40:05;11.93;;;3.28;;
21979;SDS011;11154;48.558;9.234;2022-10-31T02:42:14;12.25;;;3.80;;
21979;SDS011;11154;48.558;9.234;2022-10-31T02:44:22;13.15;;;3.65;;
21979;SDS011;11154;48.558;9.234;2022-10-31T02:46:34;10.23;;;3.47;;
21979;SDS011;11154;48.558;9.234;2022-10-31T02:48:41;7.22;;;3.40;;
21979;SDS011;11154;48.558;9.234;2022-10-31T02:50:47;14.15;;;3.10;;
21979;SDS011;11154;48.558;9.234;2022-10-31T02:52:54;7.55;;;3.22;;
21979;SDS011;11154;48.558;9.234;2022-10-31T02:54:55;7.82;;;3.55;;
21979;SDS011;11154;48.558;9.234;2022-10-31T02:56:58;5.10;;;3.33;;
21979;SDS011;11154;48.558;9.234;2022-10-31T02:59:03;9.13;;;3.25;;
21979;SDS011;11154;48.558;9.234;2022-10-31T03:01:24;12.00;;;3.42;;
21979;SDS011;11154;48.558;9.234;2022-10-31T03:03:38;10.63;;;3.78;;
21979;SDS011;11154;48.558;9.234;2022-10-31T03:05:53;6.32;;;3.17;;
21979;SDS011;11154;48.558;9.234;2022-10-31T03:08:02;7.13;;;3.35;;
21979;SDS011;11154;48.558;9.234;2022-10-31T03:10:13;9.75;;;3.53;;
21979;SDS011;11154;48.558;9.234;2022-10-31T03:12:21;14.95;;;4.38;;
21979;SDS011;11154;48.558;9.234;2022-10-31T03:14:31;8.75;;;3.55;;
21979;SDS011;11154;48.558;9.234;2022-10-31T03:16:40;10.82;;;2.95;;
21979;SDS011;11154;48.558;9.234;2022-10-31T03:18:49;4.22;;;3.33;;
21979;SDS011;11154;48.558;9.234;2022-10-31T03:20:55;8.93;;;3.13;;
21979;SDS011;11154;48.558;9.234;2022-10-31T03:23:02;9.02;;;3.08;;
21979;SDS011;11154;48.558;9.234;2022-10-31T03:25:07;8.98;;;3.15;;
21979;SDS011;11154;48.558;9.234;2022-10-31T03:27:11;8.27;;;3.00;;
21979;SDS011;11154;48.558;9.234;2022-10-31T03:29:18;10.27;;;3.88;;
21979;SDS011;11154;48.558;9.234;2022-10-31T03:31:25;8.05;;;4.05;;
21979;SDS011;11154;48.558;9.234;2022-10-31T03:33:31;8.55;;;3.22;;
21979;SDS011;11154;48.558;9.234;2022-10-31T03:35:37;7.38;;;2.97;;
21979;SDS011;11154;48.558;9.234;2022-10-31T03:37:43;11.77;;;3.33;;
21979;SDS011;11154;48.558;9.234;2022-10-31T03:39:47;5.22;;;3.22;;
21979;SDS011;11154;48.558;9.234;2022-10-31T03:41:54;7.50;;;3.35;;
21979;SDS011;11154;48.558;9.234;2022-10-31T03:44:01;7.38;;;3.72;;
21979;SDS011;11154;48.558;9.234;2022-10-31T03:46:07;9.13;;;3.55;;
21979;SDS011;11154;48.558;9.234;2022-10-31T03:48:08;6.55;;;3.45;;
21979;SDS011;11154;48.558;9.234;2022-10-31T03:50:11;7.38;;;3.03;;
21979;SDS011;11154;48.558;9.234;2022-10-31T03:52:18;7.30;;;3.40;;
21979;SDS011;11154;48.558;9.234;2022-10-31T03:54:25;8.25;;;3.40;;
21979;SDS011;11154;48.558;9.234;2022-10-31T03:56:33;5.55;;;2.92;;
21979;SDS011;11154;48.558;9.234;2022-10-31T03:58:38;6.72;;;3.78;;
21979;SDS011;11154;48.558;9.234;2022-10-31T04:00:45;6.22;;;3.33;;
21979;SDS011;11154;48.558;9.234;2022-10-31T04:02:50;7.30;;;3.58;;
21979;SDS011;11154;48.558;9.234;2022-10-31T04:04:56;6.82;;;3.20;;
21979;SDS011;11154;48.558;9.234;2022-10-31T04:06:59;4.97;;;3.08;;
21979;SDS011;11154;48.558;9.234;2022-10-31T04:09:04;6.00;;;3.03;;
21979;SDS011;11154;48.558;9.234;2022-10-31T04:11:07;4.93;;;3.13;;
21979;SDS011;11154;48.558;9.234;2022-10-31T04:13:14;7.72;;;3.13;;
21979;SDS011;11154;48.558;9.234;2022-10-31T04:15:18;4.60;;;2.72;;
21979;SDS011;11154;48.558;9.234;2022-10-31T04:17:21;4.10;;;2.70;;
21979;SDS011;11154;48.558;9.234;2022-10-31T04:19:28;5.20;;;3.28;;
21979;SDS011;11154;48.558;9.234;2022-10-31T04:21:30;6.38;;;3.30;;
21979;SDS011;11154;48.558;9.234;2022-10-31T04:23:32;4.90;;;3.13;;
21979;SDS011;11154;48.558;9.234;2022-10-31T04:25:36;4.30;;;2.72;;
21979;SDS011;11154;48.558;9.234;2022-10-31T04:27:38;5.53;;;2.60;;
21979;SDS011;11154;48.558;9.234;2022-10-31T04:29:39;5.72;;;2.72;;
21979;SDS011;11154;48.558;9.234;2022-10-31T04:31:41;5.10;;;2.70;;
21979;SDS011;11154;48.558;9.234;2022-10-31T04:33:42;6.05;;;3.15;;
21979;SDS011;11154;48.558;9.234;2022-10-31T04:35:44;6.07;;;2.88;;
21979;SDS011;11154;48.558;9.234;2022-10-31T04:37:46;4.40;;;2.50;;
21979;SDS011;11154;48.558;9.234;2022-10-31T04:39:48;6.32;;;3.10;;
21979;SDS011;11154;48.558;9.234;2022-10-31T04:41:51;6.00;;;2.75;;
21979;SDS011;11154;48.558;9.234;2022-10-31T04:43:52;5.03;;;2.78;;
21979;SDS011;11154;48.558;9.234;2022-10-31T04:45:54;4.40;;;2.50;;
21979;SDS011;11154;48.558;9.234;2022-10-31T04:47:55;5.18;;;2.67;;
21979;SDS011;11154;48.558;9.234;2022-10-31T04:49:57;6.20;;;3.22;;
21979;SDS011;11154;48.558;9.234;2022-10-31T04:51:59;9.48;;;3.13;;
21979;SDS011;11154;48.558;9.234;2022-10-31T04:54:00;5.50;;;3.17;;
21979;SDS011;11154;48.558;9.234;2022-10-31T04:56:02;4.95;;;3.42;;
21979;SDS011;11154;48.558;9.234;2022-10-31T04:58:05;6.13;;;2.90;;
21979;SDS011;11154;48.558;9.234;2022-10-31T05:00:07;6.63;;;2.90;;
21979;SDS011;11154;48.558;9.234;2022-10-31T05:02:09;6.80;;;3.10;;
21979;SDS011;11154;48.558;9.234;2022-10-31T05:04:11;5.60;;;2.70;;
21979;SDS011;11154;48.558;9.234;2022-10-31T05:06:13;4.97;;;2.92;;
21979;SDS011;11154;48.558;9.234;2022-10-31T05:08:16;4.88;;;2.72;;
21979;SDS011;11154;48.558;9.234;2022-10-31T05:10:18;6.78;;;2.97;;
21979;SDS011;11154;48.558;9.234;2022-10-31T05:12:22;7.43;;;3.10;;
21979;SDS011;11154;48.558;9.234;2022-10-31T05:14:25;5.95;;;2.85;;
21979;SDS011;11154;48.558;9.234;2022-10-31T05:16:26;6.53;;;2.88;;
21979;SDS011;11154;48.558;9.234;2022-10-31T05:18:29;7.03;;;2.95;;
21979;SDS011;11154;48.558;9.234;2022-10-31T05:20:31;7.68;;;2.95;;
21979;SDS011;11154;48.558;9.234;2022-10-31T05:22:33;8.48;;;2.80;;
21979;SDS011;11154;48.558;9.234;2022-10-31T05:24:35;6.47;;;2.72;;
21979;SDS011;11154;48.558;9.234;2022-10-31T05:26:36;6.15;;;3.30;;
21979;SDS011;11154;48.558;9.234;2022-10-31T05:28:38;4.32;;;2.47;;
21979;SDS011;11154;48.558;9.234;2022-10-31T05:30:41;7.63;;;2.83;;
21979;SDS011;11154;48.558;9.234;2022-10-31T05:32:43;5.32;;;3.00;;
21979;SDS011;11154;48.558;9.234;2022-10-31T05:34:46;5.85;;;2.65;;
21979;SDS011;11154;48.558;9.234;2022-10-31T05:36:48;7.38;;;3.20;;
21979;SDS011;11154;48.558;9.234;2022-10-31T05:38:49;4.80;;;2.97;;
21979;SDS011;11154;48.558;9.234;2022-10-31T05:40:53;7.97;;;3.03;;
21979;SDS011;11154;48.558;9.234;2022-10-31T05:42:57;7.55;;;3.15;;
21979;SDS011;11154;48.558;9.234;2022-10-31T05:44:59;5.70;;;3.15;;
21979;SDS011;11154;48.558;9.234;2022-10-31T05:47:02;5.03;;;2.78;;
21979;SDS011;11154;48.558;9.234;2022-10-31T05:49:04;8.15;;;2.80;;
21979;SDS011;11154;48.558;9.234;2022-10-31T05:51:05;6.57;;;2.78;;
21979;SDS011;11154;48.558;9.234;2022-10-31T05:53:07;4.50;;;2.67;;
21979;SDS011;11154;48.558;9.234;2022-10-31T05:55:08;8.02;;;3.03;;
21979;SDS011;11154;48.558;9.234;2022-10-31T05:57:10;3.67;;;2.80;;
21979;SDS011;11154;48.558;9.234;2022-10-31T05:59:12;6.80;;;2.75;;
21979;SDS011;11154;48.558;9.234;2022-10-31T06:01:13;5.97;;;2.95;;
21979;SDS011;11154;48.558;9.234;2022-10-31T06:03:16;4.50;;;2.80;;
21979;SDS011;11154;48.558;9.234;2022-10-31T06:05:18;5.93;;;3.08;;
21979;SDS011;11154;48.558;9.234;2022-10-31T06:07:19;6.80;;;2.83;;
21979;SDS011;11154;48.558;9.234;2022-10-31T06:09:21;5.90;;;2.78;;
21979;SDS011;11154;48.558;9.234;2022-10-31T06:11:23;5.70;;;3.00;;
21979;SDS011;11154;48.558;9.234;2022-10-31T06:13:25;8.80;;;3.38;;
21979;SDS011;11154;48.558;9.234;2022-10-31T06:15:26;10.88;;;3.30;;
21979;SDS011;11154;48.558;9.234;2022-10-31T06:17:28;8.93;;;2.90;;
21979;SDS011;11154;48.558;9.234;2022-10-31T06:19:31;11.48;;;3.33;;
21979;SDS011;11154;48.558;9.234;2022-10-31T06:21:32;5.60;;;2.90;;
21979;SDS011;11154;48.558;9.234;2022-10-31T06:23:34;5.38;;;2.95;;
21979;SDS011;11154;48.558;9.234;2022-10-31T06:25:35;8.77;;;3.22;;
21979;SDS011;11154;48.558;9.234;2022-10-31T06:27:37;9.13;;;2.95;;
21979;SDS011;11154;48.558;9.234;2022-10-31T06:29:39;8.55;;;3.50;;
21979;SDS011;11154;48.558;9.234;2022-10-31T06:31:40;10.65;;;3.38;;
21979;SDS011;11154;48.558;9.234;2022-10-31T06:33:42;9.93;;;3.20;;
21979;SDS011;11154;48.558;9.234;2022-10-31T06:35:48;6.57;;;3.10;;
21979;SDS011;11154;48.558;9.234;2022-10-31T06:37:52;11.02;;;3.10;;
21979;SDS011;11154;48.558;9.234;2022-10-31T06:39:54;6.82;;;3.03;;
21979;SDS011;11154;48.558;9.234;2022-10-31T06:41:56;6.70;;;3.13;;
21979;SDS011;11154;48.558;9.234;2022-10-31T06:43:58;6.13;;;2.65;;
21979;SDS011;11154;48.558;9.234;2022-10-31T06:46:01;11.85;;;3.20;;
21979;SDS011;11154;48.558;9.234;2022-10-31T06:48:04;7.30;;;2.85;;
21979;SDS011;11154;48.558;9.234;2022-10-31T06:50:07;5.18;;;2.70;;
21979;SDS011;11154;48.558;9.234;2022-10-31T06:52:10;6.75;;;2.67;;
21979;SDS011;11154;48.558;9.234;2022-10-31T06:54:12;5.50;;;3.10;;
21979;SDS011;11154;48.558;9.234;2022-10-31T06:56:14;6.35;;;2.72;;
21979;SDS011;11154;48.558;9.234;2022-10-31T06:58:16;8.98;;;3.33;;
21979;SDS011;11154;48.558;9.234;2022-10-31T07:00:17;5.80;;;2.85;;
21979;SDS011;11154;48.558;9.234;2022-10-31T07:02:19;8.25;;;3.30;;
21979;SDS011;11154;48.558;9.234;2022-10-31T07:04:21;11.70;;;2.90;;
21979;SDS011;11154;48.558;9.234;2022-10-31T07:06:23;6.55;;;3.20;;
21979;SDS011;11154;48.558;9.234;2022-10-31T07:08:26;6.30;;;3.45;;
21979;SDS011;11154;48.558;9.234;2022-10-31T07:10:28;6.53;;;3.17;;
21979;SDS011;11154;48.558;9.234;2022-10-31T07:12:31;6.25;;;3.42;;
21979;SDS011;11154;48.558;9.234;2022-10-31T07:14:33;9.82;;;3.38;;
21979;SDS011;11154;48.558;9.234;2022-10-31T07:16:34;11.60;;;3.50;;
21979;SDS011;11154;48.558;9.234;2022-10-31T07:18:36;6.40;;;3.30;;
21979;SDS011;11154;48.558;9.234;2022-10-31T07:20:37;7.78;;;3.03;;
21979;SDS011;11154;48.558;9.234;2022-10-31T07:22:39;5.32;;;3.38;;
21979;SDS011;11154;48.558;9.234;2022-10-31T07:24:42;5.28;;;3.17;;
21979;SDS011;11154;48.558;9.234;2022-10-31T07:26:45;8.75;;;3.38;;
21979;SDS011;11154;48.558;9.234;2022-10-31T07:28:47;11.05;;;5.57;;
21979;SDS011;11154;48.558;9.234;2022-10-31T07:30:49;14.65;;;8.60;;
21979;SDS011;11154;48.558;9.234;2022-10-31T07:32:51;13.23;;;4.22;;
21979;SDS011;11154;48.558;9.234;2022-10-31T07:34:52;9.27;;;2.80;;
21979;SDS011;11154;48.558;9.234;2022-10-31T07:36:54;5.82;;;2.90;;
21979;SDS011;11154;48.558;9.234;2022-10-31T07:38:56;10.07;;;3.17;;
21979;SDS011;11154;48.558;9.234;2022-10-31T07:41:00;12.63;;;3.38;;
21979;SDS011;11154;48.558;9.234;2022-10-31T07:43:01;7.07;;;3.22;;
21979;SDS011;11154;48.558;9.234;2022-10-31T07:45:04;4.95;;;3.20;;
21979;SDS011;11154;48.558;9.234;2022-10-31T07:47:07;6.55;;;3.20;;
21979;SDS011;11154;48.558;9.234;2022-10-31T07:49:08;5.55;;;3.08;;
21979;SDS011;11154;48.558;9.234;2022-10-31T07:51:10;7.43;;;2.78;;
21979;SDS011;11154;48.558;9.234;2022-10-31T07:53:12;6.72;;;2.97;;
21979;SDS011;11154;48.558;9.234;2022-10-31T07:55:15;5.22;;;2.90;;
21979;SDS011;11154;48.558;9.234;2022-10-31T07:57:18;8.95;;;3.42;;
21979;SDS011;11154;48.558;9.234;2022-10-31T07:59:20;5.82;;;3.05;;
21979;SDS011;11154;48.558;9.234;2022-10-31T08:01:21;6.97;;;3.28;;
21979;SDS011;11154;48.558;9.234;2022-10-31T08:03:23;5.25;;;3.38;;
21979;SDS011;11154;48.558;9.234;2022-10-31T08:05:24;6.30;;;3.40;;
21979;SDS011;11154;48.558;9.234;2022-10-31T08:07:26;8.38;;;4.00;;
21979;SDS011;11154;48.558;9.234;2022-10-31T08:09:28;10.82;;;3.58;;
21979;SDS011;11154;48.558;9.234;2022-10-31T08:11:30;7.90;;;4.05;;
21979;SDS011;11154;48.558;9.234;2022-10-31T08:13:33;6.95;;;3.63;;
21979;SDS011;11154;48.558;9.234;2022-10-31T08:15:34;9.65;;;3.85;;
21979;SDS011;11154;48.558;9.234;2022-10-31T08:17:39;9.38;;;4.03;;
21979;SDS011;11154;48.558;9.234;2022-10-31T08:19:40;7.53;;;3.85;;
21979;SDS011;11154;48.558;9.234;2022-10-31T08:21:42;9.75;;;3.83;;
21979;SDS011;11154;48.558;9.234;2022-10-31T08:23:43;9.13;;;3.97;;
21979;SDS011;11154;48.558;9.234;2022-10-31T08:25:45;8.10;;;3.97;;
21979;SDS011;11154;48.558;9.234;2022-10-31T08:27:50;8.38;;;3.95;;
21979;SDS011;11154;48.558;9.234;2022-10-31T08:29:54;8.30;;;3.33;;
21979;SDS011;11154;48.558;9.234;2022-10-31T08:31:57;5.10;;;3.45;;
21979;SDS011;11154;48.558;9.234;2022-10-31T08:33:58;6.22;;;3.25;;
21979;SDS011;11154;48.558;9.234;2022-10-31T08:36:00;9.15;;;3.83;;
21979;SDS011;11154;48.558;9.234;2022-10-31T08:38:01;8.52;;;3.60;;
21979;SDS011;11154;48.558;9.234;2022-10-31T08:40:04;9.50;;;4.00;;
21979;SDS011;11154;48.558;9.234;2022-10-31T08:42:06;7.00;;;3.40;;
21979;SDS011;11154;48.558;9.234;2022-10-31T08:44:08;10.07;;;3.35;;
21979;SDS011;11154;48.558;9.234;2022-10-31T08:46:11;7.95;;;3.88;;
21979;SDS011;11154;48.558;9.234;2022-10-31T08:48:14;12.73;;;3.75;;
21979;SDS011;11154;48.558;9.234;2022-10-31T08:50:17;10.10;;;3.65;;
21979;SDS011;11154;48.558;9.234;2022-10-31T08:52:22;13.15;;;3.78;;
21979;SDS011;11154;48.558;9.234;2022-10-31T08:54:24;8.00;;;3.88;;
21979;SDS011;11154;48.558;9.234;2022-10-31T08:56:25;11.32;;;3.88;;
21979;SDS011;11154;48.558;9.234;2022-10-31T08:58:27;9.75;;;3.75;;
21979;SDS011;11154;48.558;9.234;2022-10-31T09:00:28;11.30;;;3.88;;
21979;SDS011;11154;48.558;9.234;2022-10-31T09:02:31;6.97;;;3.75;;
21979;SDS011;11154;48.558;9.234;2022-10-31T09:04:33;14.88;;;7.00;;
21979;SDS011;11154;48.558;9.234;2022-10-31T09:06:35;11.50;;;5.35;;
21979;SDS011;11154;48.558;9.234;2022-10-31T09:08:36;7.13;;;3.67;;
21979;SDS011;11154;48.558;9.234;2022-10-31T09:10:38;8.60;;;4.03;;
21979;SDS011;11154;48.558;9.234;2022-10-31T09:12:40;9.32;;;3.50;;
21979;SDS011;11154;48.558;9.234;2022-10-31T09:14:42;8.20;;;3.55;;
21979;SDS011;11154;48.558;9.234;2022-10-31T09:16:43;9.95;;;3.65;;
21979;SDS011;11154;48.558;9.234;2022-10-31T09:18:46;6.72;;;3.55;;
21979;SDS011;11154;48.558;9.234;2022-10-31T09:20:48;10.75;;;3.45;;
21979;SDS011;11154;48.558;9.234;2022-10-31T09:22:55;8.15;;;3.58;;
21979;SDS011;11154;48.558;9.234;2022-10-31T09:24:58;10.95;;;3.42;;
21979;SDS011;11154;48.558;9.234;2022-10-31T09:27:00;9.05;;;3.50;;
21979;SDS011;11154;48.558;9.234;2022-10-31T09:29:01;14.52;;;3.75;;
21979;SDS011;11154;48.558;9.234;2022-10-31T09:31:03;8.80;;;3.78;;
21979;SDS011;11154;48.558;9.234;2022-10-31T09:33:05;4.40;;;3.05;;
21979;SDS011;11154;48.558;9.234;2022-10-31T09:35:09;8.75;;;3.75;;
21979;SDS011;11154;48.558;9.234;2022-10-31T09:37:11;16.05;;;4.80;;
21979;SDS011;11154;48.558;9.234;2022-10-31T09:39:12;12.60;;;5.20;;
21979;SDS011;11154;48.558;9.234;2022-10-31T09:41:16;6.95;;;3.50;;
21979;SDS011;11154;48.558;9.234;2022-10-31T09:43:26;5.72;;;3.60;;
21979;SDS011;11154;48.558;9.234;2022-10-31T09:45:35;10.68;;;3.80;;
21979;SDS011;11154;48.558;9.234;2022-10-31T09:47:44;12.32;;;4.57;;
21979;SDS011;11154;48.558;9.234;2022-10-31T09:50:01;10.48;;;5.50;;
21979;SDS011;11154;48.558;9.234;2022-10-31T09:52:13;9.93;;;4.30;;
21979;SDS011;11154;48.558;9.234;2022-10-31T09:54:20;9.55;;;3.83;;
21979;SDS011;11154;48.558;9.234;2022-10-31T09:56:33;12.43;;;4.95;;
21979;SDS011;11154;48.558;9.234;2022-10-31T09:58:38;7.80;;;3.72;;
21979;SDS011;11154;48.558;9.234;2022-10-31T10:00:43;11.77;;;3.88;;
21979;SDS011;11154;48.558;9.234;2022-10-31T10:02:47;6.38;;;3.88;;
21979;SDS011;11154;48.558;9.234;2022-10-31T10:04:55;11.90;;;4.50;;
21979;SDS011;11154;48.558;9.234;2022-10-31T10:06:59;12.57;;;5.38;;
21979;SDS011;11154;48.558;9.234;2022-10-31T10:09:10;13.32;;;6.72;;
21979;SDS011;11154;48.558;9.234;2022-10-31T10:11:19;14.60;;;6.30;;
21979;SDS011;11154;48.558;9.234;2022-10-31T10:13:36;10.85;;;4.57;;
21979;SDS011;11154;48.558;9.234;2022-10-31T10:15:52;9.38;;;3.83;;
21979;SDS011;11154;48.558;9.234;2022-10-31T10:18:03;7.47;;;4.10;;
21979;SDS011;11154;48.558;9.234;2022-10-31T10:20:15;7.60;;;3.83;;
21979;SDS011;11154;48.558;9.234;2022-10-31T10:22:25;8.77;;;4.38;;
21979;SDS011;11154;48.558;9.234;2022-10-31T10:24:44;7.05;;;3.60;;
21979;SDS011;11154;48.558;9.234;2022-10-31T10:26:59;10.20;;;4.35;;
21979;SDS011;11154;48.558;9.234;2022-10-31T10:31:16;10.32;;;3.45;;
21979;SDS011;11154;48.558;9.234;2022-10-31T10:33:22;10.77;;;3.50;;
21979;SDS011;11154;48.558;9.234;2022-10-31T10:35:29;10.15;;;3.67;;
21979;SDS011;11154;48.558;9.234;2022-10-31T10:37:35;11.32;;;3.92;;
21979;SDS011;11154;48.558;9.234;2022-10-31T10:39:43;10.52;;;3.83;;
21979;SDS011;11154;48.558;9.234;2022-10-31T10:41:49;8.35;;;3.55;;
21979;SDS011;11154;48.558;9.234;2022-10-31T10:44:09;15.48;;;5.10;;
21979;SDS011;11154;48.558;9.234;2022-10-31T10:46:18;8.43;;;3.78;;
21979;SDS011;11154;48.558;9.234;2022-10-31T10:48:41;13.13;;;6.50;;
21979;SDS011;11154;48.558;9.234;2022-10-31T10:50:46;12.88;;;4.45;;
21979;SDS011;11154;48.558;9.234;2022-10-31T10:52:50;6.85;;;3.90;;
21979;SDS011;11154;48.558;9.234;2022-10-31T10:55:05;10.48;;;4.22;;
21979;SDS011;11154;48.558;9.234;2022-10-31T10:57:20;7.68;;;4.38;;
21979;SDS011;11154;48.558;9.234;2022-10-31T10:59:24;9.48;;;4.47;;
21979;SDS011;11154;48.558;9.234;2022-10-31T11:01:26;8.10;;;4.20;;
21979;SDS011;11154;48.558;9.234;2022-10-31T11:03:28;16.35;;;3.70;;
21979;SDS011;11154;48.558;9.234;2022-10-31T11:05:33;10.98;;;4.20;;
21979;SDS011;11154;48.558;9.234;2022-10-31T11:07:38;9.05;;;3.88;;
21979;SDS011;11154;48.558;9.234;2022-10-31T11:09:41;14.20;;;4.95;;
21979;SDS011;11154;48.558;9.234;2022-10-31T11:11:43;15.90;;;4.88;;
21979;SDS011;11154;48.558;9.234;2022-10-31T11:13:47;10.00;;;4.18;;
21979;SDS011;11154;48.558;9.234;2022-10-31T11:15:51;8.38;;;4.15;;
21979;SDS011;11154;48.558;9.234;2022-10-31T11:18:01;10.00;;;4.43;;
21979;SDS011;11154;48.558;9.234;2022-10-31T11:20:04;11.85;;;4.03;;
21979;SDS011;11154;48.558;9.234;2022-10-31T11:22:08;8.88;;;4.45;;
21979;SDS011;11154;48.558;9.234;2022-10-31T11:24:16;9.27;;;4.15;;
21979;SDS011;11154;48.558;9.234;2022-10-31T11:26:19;7.57;;;4.13;;
21979;SDS011;11154;48.558;9.234;2022-10-31T11:28:23;13.07;;;4.57;;
21979;SDS011;11154;48.558;9.234;2022-10-31T11:30:25;12.45;;;4.82;;
21979;SDS011;11154;48.558;9.234;2022-10-31T11:32:27;9.25;;;4.50;;
21979;SDS011;11154;48.558;9.234;2022-10-31T11:34:30;13.63;;;4.65;;
21979;SDS011;11154;48.558;9.234;2022-10-31T11:36:35;8.85;;;4.15;;
21979;SDS011;11154;48.558;9.234;2022-10-31T11:38:39;8.77;;;3.70;;
21979;SDS011;11154;48.558;9.234;2022-10-31T11:40:50;14.82;;;4.20;;
21979;SDS011;11154;48.558;9.234;2022-10-31T11:42:54;10.13;;;4.15;;
21979;SDS011;11154;48.558;9.234;2022-10-31T11:45:00;11.57;;;4.10;;
21979;SDS011;11154;48.558;9.234;2022-10-31T11:47:10;10.45;;;4.40;;
21979;SDS011;11154;48.558;9.234;2022-10-31T11:49:15;10.63;;;3.88;;
21979;SDS011;11154;48.558;9.234;2022-10-31T11:51:21;8.85;;;3.53;;
21979;SDS011;11154;48.558;9.234;2022-10-31T11:53:26;10.60;;;3.60;;
21979;SDS011;11154;48.558;9.234;2022-10-31T11:55:31;15.73;;;4.05;;
21979;SDS011;11154;48.558;9.234;2022-10-31T11:57:42;9.05;;;3.90;;
21979;SDS011;11154;48.558;9.234;2022-10-31T11:59:50;10.13;;;3.63;;
21979;SDS011;11154;48.558;9.234;2022-10-31T12:01:54;12.98;;;3.92;;
21979;SDS011;11154;48.558;9.234;2022-10-31T12:03:59;8.07;;;3.47;;
21979;SDS011;11154;48.558;9.234;2022-10-31T12:06:08;9.50;;;3.38;;
21979;SDS011;11154;48.558;9.234;2022-10-31T12:08:13;10.07;;;3.65;;
21979;SDS011;11154;48.558;9.234;2022-10-31T12:10:14;12.35;;;3.40;;
21979;SDS011;11154;48.558;9.234;2022-10-31T12:12:26;6.70;;;3.10;;
21979;SDS011;11154;48.558;9.234;2022-10-31T12:14:52;9.82;;;3.20;;
21979;SDS011;11154;48.558;9.234;2022-10-31T12:17:08;7.15;;;3.10;;
21979;SDS011;11154;48.558;9.234;2022-10-31T12:19:19;10.80;;;3.55;;
21979;SDS011;11154;48.558;9.234;2022-10-31T12:21:31;9.95;;;3.42;;
21979;SDS011;11154;48.558;9.234;2022-10-31T12:23:45;8.43;;;3.03;;
21979;SDS011;11154;48.558;9.234;2022-10-31T12:26:00;12.18;;;3.60;;
21979;SDS011;11154;48.558;9.234;2022-10-31T12:30:49;12.60;;;3.28;;